F/V Le Natif 2 — FKVW — position and weather

sailwx.info

Track history (hours):
 
Tides and Currents Weather Stations Pressure Air Temp Water Temp Dewpoint Dewpoint Depression Visibility Wind Speed Wind Dir Waves Ship Positions

F/V Le Natif 2

Last reported at 2017-Jun-25 16:29 UTC. Time now 2017-Jun-25 20:55 UTC.
Position N 46°42' W 001°57'.

Length 16 m.

Type: Fishing. MMSI: 228131600.

Date/timePositionNaut miles runAvg speedWind from/ knotsBaromVisibWave heightAir tempDewpointWater temp
2017-Jun-25 16:29N 46°42' W 001°57'0 0.0
2017-Jun-25 16:01N 46°42' W 001°57'0 0.0
2017-Jun-25 15:30N 46°42' W 001°57'1 2.7
2017-Jun-25 15:01N 46°41' W 001°58'5 9.8
2017-Jun-25 14:30N 46°43' W 002°05'10 9.5
2017-Jun-25 13:28N 46°49' W 002°16'4 9.4
2017-Jun-25 13:01N 46°53' W 002°20'5 9.0
2017-Jun-25 12:31N 46°56' W 002°23'4 8.5
2017-Jun-25 11:59N 47°01' W 002°25'4 8.3
2017-Jun-25 11:31N 47°05' W 002°26'3 6.6
2017-Jun-25 11:00N 47°08' W 002°27'2 3.1
2017-Jun-25 10:29N 47°07' W 002°29'1 2.5
2017-Jun-25 10:00N 47°07' W 002°31'2 3.6
2017-Jun-25 09:30N 47°09' W 002°30'1 1.9
2017-Jun-25 09:01N 47°08' W 002°31'1 1.6
2017-Jun-25 08:30N 47°07' W 002°31'0 0.6
2017-Jun-25 08:00N 47°07' W 002°31'2 4.2
2017-Jun-25 07:29N 47°08' W 002°28'1 1.7
2017-Jun-25 07:00N 47°08' W 002°30'2 4.2
2017-Jun-25 06:30N 47°09' W 002°27'3 5.6
2017-Jun-25 06:00N 47°06' W 002°25'4 7.7
2017-Jun-25 05:30N 47°02' W 002°25'4 7.7
2017-Jun-25 05:00N 46°58' W 002°25'4 7.4
2017-Jun-25 04:30N 46°55' W 002°24'4 7.5
2017-Jun-25 04:00N 46°52' W 002°21'4 7.3
2017-Jun-25 03:29N 46°49' W 002°18'3 7.2
2017-Jun-25 03:00N 46°46' W 002°15'4 7.8
2017-Jun-25 02:29N 46°44' W 002°10'4 8.0
2017-Jun-25 02:00N 46°43' W 002°04'4 8.2
2017-Jun-25 01:31N 46°41' W 001°59'2 3.5
2017-Jun-25 01:00N 46°42' W 001°56'0 0.0
2017-Jun-23 10:21N 46°42' W 001°56'0 0.0
2017-Jun-23 10:00N 46°42' W 001°56'0 0.0
2017-Jun-23 09:30N 46°42' W 001°56'0 0.0
2017-Jun-23 09:00N 46°42' W 001°56'0 0.0
2017-Jun-23 08:30N 46°42' W 001°56'0 0.0
2017-Jun-23 08:00N 46°42' W 001°56'0 0.0
2017-Jun-23 07:30N 46°42' W 001°56'0 0.0
2017-Jun-23 07:00N 46°42' W 001°56'0 0.0
2017-Jun-23 06:30N 46°42' W 001°56'0 0.0
2017-Jun-23 06:00N 46°42' W 001°56'0 0.0
2017-Jun-22 22:50N 46°42' W 001°56'0 0.0
2017-Jun-22 22:30N 46°42' W 001°56'0 0.0
2017-Jun-22 22:00N 46°42' W 001°56'0 0.0
2017-Jun-22 21:30N 46°42' W 001°56'0 0.0
2017-Jun-22 21:00N 46°42' W 001°56'0 0.0
2017-Jun-22 20:30N 46°42' W 001°56'0 0.0
2017-Jun-22 20:00N 46°42' W 001°56'0 0.0
2017-Jun-22 19:30N 46°42' W 001°56'0 0.0
2017-Jun-22 19:00N 46°42' W 001°56'0 0.0
2017-Jun-22 18:30N 46°42' W 001°56'0 0.0
2017-Jun-22 17:59N 46°42' W 001°56'0 0.0
2017-Jun-22 17:30N 46°42' W 001°56'0 0.0
2017-Jun-22 17:00N 46°42' W 001°56'0 0.2
2017-Jun-22 16:30N 46°42' W 001°57'0 0.2
2017-Jun-22 16:00N 46°42' W 001°56'0 0.0
2017-Jun-22 15:30N 46°42' W 001°56'0 0.0
2017-Jun-22 15:00N 46°42' W 001°56'7 6.8
2017-Jun-22 14:00N 46°43' W 002°06'610.1
2017-Jun-22 13:23N 46°46' W 002°14'410.6
2017-Jun-22 12:58N 46°50' W 002°18'510.1
2017-Jun-22 12:30N 46°54' W 002°21'5 9.6
2017-Jun-22 11:59N 46°58' W 002°25'4 8.9
2017-Jun-22 11:30N 47°02' W 002°27'5 9.0
2017-Jun-22 11:00N 47°07' W 002°29'1 2.3
2017-Jun-22 10:30N 47°08' W 002°30'1 1.7
2017-Jun-22 10:00N 47°08' W 002°29'2 3.9
2017-Jun-22 09:28N 47°09' W 002°26'1 2.9
2017-Jun-22 09:00N 47°08' W 002°25'1 1.6
2017-Jun-22 08:30N 47°09' W 002°25'1 2.3
2017-Jun-22 08:00N 47°08' W 002°24'0 0.6
2017-Jun-22 07:30N 47°08' W 002°24'2 3.0
2017-Jun-22 07:00N 47°09' W 002°26'1 2.6
2017-Jun-22 06:30N 47°08' W 002°24'2 3.9
2017-Jun-22 06:00N 47°06' W 002°24'4 7.8
2017-Jun-22 05:30N 47°02' W 002°24'4 8.0
2017-Jun-22 05:00N 46°58' W 002°25'4 8.7
2017-Jun-22 04:30N 46°54' W 002°22'4 8.5
2017-Jun-22 04:00N 46°51' W 002°19'4 8.5
2017-Jun-22 03:30N 46°47' W 002°16'4 7.8
2017-Jun-22 03:00N 46°45' W 002°11'4 8.8
2017-Jun-22 02:30N 46°43' W 002°05'4 9.0
2017-Jun-22 02:00N 46°41' W 001°59'2 3.8
2017-Jun-22 01:30N 46°42' W 001°57'0 0.0
2017-Jun-22 01:00N 46°42' W 001°57'0 0.0
2017-Jun-21 16:46N 46°42' W 001°57'0 0.0
2017-Jun-21 16:31N 46°42' W 001°57'0 0.2
2017-Jun-21 16:01N 46°42' W 001°56'0 0.0
2017-Jun-21 15:30N 46°42' W 001°56'0 0.0
2017-Jun-21 15:00N 46°42' W 001°56'5 5.4
2017-Jun-21 14:00N 46°43' W 002°04'510.0
2017-Jun-21 13:30N 46°45' W 002°11'510.1
2017-Jun-21 13:01N 46°48' W 002°16'510.2
2017-Jun-21 12:30N 46°53' W 002°20'610.2
2017-Jun-21 11:54N 46°58' W 002°25'3 8.6
2017-Jun-21 11:30N 47°02' W 002°24'4 8.8
2017-Jun-21 11:00N 47°06' W 002°24'2 3.5
2017-Jun-21 10:29N 47°08' W 002°25'0 0.3
2017-Jun-21 10:00N 47°08' W 002°24'1 2.0
2017-Jun-21 09:31N 47°08' W 002°25'1 2.9
2017-Jun-21 09:00N 47°10' W 002°25'2 3.5
2017-Jun-21 08:30N 47°09' W 002°24'2 3.3
2017-Jun-21 08:00N 47°10' W 002°25'1 1.2
2017-Jun-21 07:30N 47°10' W 002°26'0 0.2
2017-Jun-21 07:00N 47°10' W 002°26'0 0.9
2017-Jun-21 06:31N 47°10' W 002°25'2 3.4
2017-Jun-21 06:00N 47°08' W 002°24'1 2.4
2017-Jun-21 05:31N 47°07' W 002°24'4 8.4
2017-Jun-21 05:00N 47°03' W 002°24'4 8.2
2017-Jun-21 04:30N 46°59' W 002°25'4 8.7
2017-Jun-21 04:01N 46°55' W 002°23'4 8.8
2017-Jun-21 03:31N 46°51' W 002°19'4 8.9
2017-Jun-21 03:01N 46°47' W 002°16'4 8.1
2017-Jun-21 02:31N 46°45' W 002°12'5 9.1
2017-Jun-21 02:00N 46°43' W 002°05'5 9.1
2017-Jun-21 01:30N 46°41' W 001°59'2 3.9
2017-Jun-21 01:01N 46°42' W 001°57'0 0.0
2017-Jun-20 20:28N 46°42' W 001°57'0 0.0
2017-Jun-20 20:00N 46°42' W 001°57'0 0.0
2017-Jun-20 19:06N 46°42' W 001°57'0 0.0
2017-Jun-20 19:00N 46°42' W 001°57'0 0.0
2017-Jun-20 18:30N 46°42' W 001°57'0 0.0
2017-Jun-20 18:00N 46°42' W 001°57'0 0.0
2017-Jun-20 17:30N 46°42' W 001°57'0 0.2
2017-Jun-20 17:00N 46°42' W 001°56'0 0.0
2017-Jun-20 16:29N 46°42' W 001°56'0 0.0
2017-Jun-20 16:00N 46°42' W 001°56'0 0.3
2017-Jun-20 15:30N 46°42' W 001°57'4 7.5
2017-Jun-20 15:00N 46°42' W 002°02'9 9.4
2017-Jun-20 14:00N 46°47' W 002°14'510.0
2017-Jun-20 13:30N 46°51' W 002°18'5 9.7
2017-Jun-20 13:00N 46°55' W 002°22'5 9.4
2017-Jun-20 12:30N 46°59' W 002°24'5 9.2
2017-Jun-20 12:00N 47°04' W 002°24'4 6.7
2017-Jun-20 11:29N 47°07' W 002°23'1 2.8
2017-Jun-20 11:00N 47°08' W 002°25'1 1.3
2017-Jun-20 10:30N 47°08' W 002°25'2 3.7
2017-Jun-20 10:00N 47°10' W 002°25'0 0.9
2017-Jun-20 09:30N 47°10' W 002°25'0 0.5
2017-Jun-20 08:59N 47°10' W 002°25'0 0.8
2017-Jun-20 08:30N 47°10' W 002°25'2 3.2
2017-Jun-20 07:59N 47°09' W 002°27'1 1.1
2017-Jun-20 07:30N 47°09' W 002°28'4 7.9
2017-Jun-20 07:00N 47°07' W 002°33'3 6.5
2017-Jun-20 06:30N 47°04' W 002°33'510.2
2017-Jun-20 06:00N 46°59' W 002°33'4 8.4
2017-Jun-20 05:30N 46°55' W 002°32'5 9.1
2017-Jun-20 05:00N 46°50' W 002°29'4 8.9
2017-Jun-20 04:30N 46°48' W 002°24'5 9.5
2017-Jun-20 04:00N 46°46' W 002°17'5 9.4
2017-Jun-20 03:30N 46°44' W 002°11'5 9.4
2017-Jun-20 03:00N 46°43' W 002°05'5 9.3
2017-Jun-20 02:30N 46°41' W 001°58'1 2.7
2017-Jun-20 02:00N 46°42' W 001°57'0 0.0
2017-Jun-20 01:30N 46°42' W 001°57'0 0.0
2017-Jun-20 01:00N 46°42' W 001°57'0 0.0
2017-Jun-20 00:30N 46°42' W 001°57'0 0.0
2017-Jun-20 00:00N 46°42' W 001°57'0 0.0
2017-Jun-19 23:30N 46°42' W 001°57'0 0.0
2017-Jun-19 23:00N 46°42' W 001°57'0 0.0
2017-Jun-19 22:30N 46°42' W 001°57'0 0.0
2017-Jun-19 22:00N 46°42' W 001°57'0 0.2
2017-Jun-19 21:30N 46°42' W 001°56'0 0.0
2017-Jun-19 21:00N 46°42' W 001°56'0 0.7
2017-Jun-19 20:30N 46°42' W 001°57'4 8.2
2017-Jun-19 20:00N 46°42' W 002°03'5 9.4
2017-Jun-19 19:30N 46°44' W 002°09'4 8.9
2017-Jun-19 19:00N 46°46' W 002°15'22 8.9
2017-Jun-19 16:36N 47°01' W 002°37'0 3.2
2017-Jun-19 16:27N 47°02' W 002°38'2 4.1
2017-Jun-19 16:00N 47°04' W 002°38'2 3.7
2017-Jun-19 15:30N 47°05' W 002°37'2 2.6
2017-Jun-19 14:45N 47°03' W 002°36'1 2.4
2017-Jun-19 14:20N 47°02' W 002°36'2 0.5
2017-Jun-19 09:55N 47°01' W 002°33'3 4.1
2017-Jun-19 09:12N 47°01' W 002°37'1 2.3
2017-Jun-19 08:51N 47°01' W 002°36'2 2.0
2017-Jun-19 07:53N 46°59' W 002°35'5 6.1
2017-Jun-19 07:06N 46°54' W 002°34'2 1.5
2017-Jun-19 05:56N 46°56' W 002°34'2 2.1
2017-Jun-19 05:11N 46°55' W 002°32'2 8.2
2017-Jun-19 04:56N 46°53' W 002°32'3 6.6
2017-Jun-19 04:30N 46°50' W 002°30'4 8.6
2017-Jun-19 04:00N 46°48' W 002°24'5 9.5
2017-Jun-19 03:30N 46°46' W 002°18'5 9.6
2017-Jun-19 03:00N 46°44' W 002°12'5 9.5
2017-Jun-19 02:30N 46°43' W 002°05'5 9.4
2017-Jun-19 02:00N 46°41' W 001°59'2 3.1
2017-Jun-19 01:30N 46°42' W 001°57'0 0.0
2017-Jun-18 22:09N 46°42' W 001°57'0 0.0
2017-Jun-18 22:01N 46°42' W 001°57'0 0.0
2017-Jun-18 21:30N 46°42' W 001°57'0 0.0
2017-Jun-18 21:01N 46°42' W 001°57'0 0.0
2017-Jun-18 20:30N 46°42' W 001°57'0 0.0
2017-Jun-18 15:28N 46°42' W 001°57'0 0.0
2017-Jun-18 15:00N 46°42' W 001°57'0 0.0
2017-Jun-18 14:00N 46°42' W 001°57'0 0.0
2017-Jun-18 13:30N 46°42' W 001°57'0 0.2
2017-Jun-18 13:00N 46°42' W 001°56'0 0.0
2017-Jun-18 12:30N 46°42' W 001°56'1 1.7
2017-Jun-18 12:00N 46°41' W 001°58'4 8.7
2017-Jun-18 11:30N 46°43' W 002°04'5 9.3
2017-Jun-18 11:00N 46°44' W 002°10'19 8.8
2017-Jun-18 08:51N 46°53' W 002°35'1 3.0
2017-Jun-18 08:29N 46°53' W 002°33'2 3.1
2017-Jun-18 07:46N 46°51' W 002°31'2 4.1
2017-Jun-18 07:21N 46°50' W 002°31'1 2.9
2017-Jun-18 06:55N 46°49' W 002°32'1 2.3
2017-Jun-18 06:28N 46°50' W 002°31'2 3.5
2017-Jun-18 06:00N 46°50' W 002°29'1 1.8
2017-Jun-18 05:25N 46°50' W 002°30'1 3.3
2017-Jun-18 05:00N 46°50' W 002°29'0 0.1
2017-Jun-18 04:30N 46°50' W 002°28'0 0.1
2017-Jun-18 04:00N 46°50' W 002°28'3 5.3
2017-Jun-18 03:30N 46°49' W 002°25'5 9.4
2017-Jun-18 03:00N 46°47' W 002°19'5 9.7
2017-Jun-18 02:30N 46°45' W 002°12'5 9.3
2017-Jun-18 02:00N 46°43' W 002°06'5 9.1
2017-Jun-18 01:30N 46°41' W 001°60'2 4.9
2017-Jun-18 01:00N 46°42' W 001°56'0 0.0
2017-Jun-18 00:30N 46°42' W 001°56'  
2017-Jun-15 18:22N 46°42' W 001°57'0 0.3
2017-Jun-15 18:00N 46°42' W 001°56'0 0.0
2017-Jun-15 17:29N 46°42' W 001°56'0 0.0
2017-Jun-15 17:00N 46°42' W 001°56'3 6.1
2017-Jun-15 16:30N 46°41' W 002°01'  
Track history (hours):
 
Tides and Currents Weather Stations Pressure Air Temp Water Temp Dewpoint Dewpoint Depression Visibility Wind Speed Wind Dir Waves Ship Positions

F/V Le Natif 2

Last reported at 2017-Jun-25 16:29 UTC. Time now 2017-Jun-25 20:55 UTC.
Position N 46°42' W 001°57'.

Length 16 m.

Type: Fishing. MMSI: 228131600.

Date/timePositionNaut miles runAvg speedWind from/ knotsBaromVisibWave heightAir tempDewpointWater temp
2017-Jun-25 16:29N 46°42' W 001°57'0 0.0
2017-Jun-25 16:01N 46°42' W 001°57'0 0.0
2017-Jun-25 15:30N 46°42' W 001°57'1 2.7
2017-Jun-25 15:01N 46°41' W 001°58'5 9.8
2017-Jun-25 14:30N 46°43' W 002°05'10 9.5
2017-Jun-25 13:28N 46°49' W 002°16'4 9.4
2017-Jun-25 13:01N 46°53' W 002°20'5 9.0
2017-Jun-25 12:31N 46°56' W 002°23'4 8.5
2017-Jun-25 11:59N 47°01' W 002°25'4 8.3
2017-Jun-25 11:31N 47°05' W 002°26'3 6.6
2017-Jun-25 11:00N 47°08' W 002°27'2 3.1
2017-Jun-25 10:29N 47°07' W 002°29'1 2.5
2017-Jun-25 10:00N 47°07' W 002°31'2 3.6
2017-Jun-25 09:30N 47°09' W 002°30'1 1.9
2017-Jun-25 09:01N 47°08' W 002°31'1 1.6
2017-Jun-25 08:30N 47°07' W 002°31'0 0.6
2017-Jun-25 08:00N 47°07' W 002°31'2 4.2
2017-Jun-25 07:29N 47°08' W 002°28'1 1.7
2017-Jun-25 07:00N 47°08' W 002°30'2 4.2
2017-Jun-25 06:30N 47°09' W 002°27'3 5.6
2017-Jun-25 06:00N 47°06' W 002°25'4 7.7
2017-Jun-25 05:30N 47°02' W 002°25'4 7.7
2017-Jun-25 05:00N 46°58' W 002°25'4 7.4
2017-Jun-25 04:30N 46°55' W 002°24'4 7.5
2017-Jun-25 04:00N 46°52' W 002°21'4 7.3
2017-Jun-25 03:29N 46°49' W 002°18'3 7.2
2017-Jun-25 03:00N 46°46' W 002°15'4 7.8
2017-Jun-25 02:29N 46°44' W 002°10'4 8.0
2017-Jun-25 02:00N 46°43' W 002°04'4 8.2
2017-Jun-25 01:31N 46°41' W 001°59'2 3.5
2017-Jun-25 01:00N 46°42' W 001°56'0 0.0
2017-Jun-23 10:21N 46°42' W 001°56'0 0.0
2017-Jun-23 10:00N 46°42' W 001°56'0 0.0
2017-Jun-23 09:30N 46°42' W 001°56'0 0.0
2017-Jun-23 09:00N 46°42' W 001°56'0 0.0
2017-Jun-23 08:30N 46°42' W 001°56'0 0.0
2017-Jun-23 08:00N 46°42' W 001°56'0 0.0
2017-Jun-23 07:30N 46°42' W 001°56'0 0.0
2017-Jun-23 07:00N 46°42' W 001°56'0 0.0
2017-Jun-23 06:30N 46°42' W 001°56'0 0.0
2017-Jun-23 06:00N 46°42' W 001°56'0 0.0
2017-Jun-22 22:50N 46°42' W 001°56'0 0.0
2017-Jun-22 22:30N 46°42' W 001°56'0 0.0
2017-Jun-22 22:00N 46°42' W 001°56'0 0.0
2017-Jun-22 21:30N 46°42' W 001°56'0 0.0
2017-Jun-22 21:00N 46°42' W 001°56'0 0.0
2017-Jun-22 20:30N 46°42' W 001°56'0 0.0
2017-Jun-22 20:00N 46°42' W 001°56'0 0.0
2017-Jun-22 19:30N 46°42' W 001°56'0 0.0
2017-Jun-22 19:00N 46°42' W 001°56'0 0.0
2017-Jun-22 18:30N 46°42' W 001°56'0 0.0
2017-Jun-22 17:59N 46°42' W 001°56'0 0.0
2017-Jun-22 17:30N 46°42' W 001°56'0 0.0
2017-Jun-22 17:00N 46°42' W 001°56'0 0.2
2017-Jun-22 16:30N 46°42' W 001°57'0 0.2
2017-Jun-22 16:00N 46°42' W 001°56'0 0.0
2017-Jun-22 15:30N 46°42' W 001°56'0 0.0
2017-Jun-22 15:00N 46°42' W 001°56'7 6.8
2017-Jun-22 14:00N 46°43' W 002°06'610.1
2017-Jun-22 13:23N 46°46' W 002°14'410.6
2017-Jun-22 12:58N 46°50' W 002°18'510.1
2017-Jun-22 12:30N 46°54' W 002°21'5 9.6
2017-Jun-22 11:59N 46°58' W 002°25'4 8.9
2017-Jun-22 11:30N 47°02' W 002°27'5 9.0
2017-Jun-22 11:00N 47°07' W 002°29'1 2.3
2017-Jun-22 10:30N 47°08' W 002°30'1 1.7
2017-Jun-22 10:00N 47°08' W 002°29'2 3.9
2017-Jun-22 09:28N 47°09' W 002°26'1 2.9
2017-Jun-22 09:00N 47°08' W 002°25'1 1.6
2017-Jun-22 08:30N 47°09' W 002°25'1 2.3
2017-Jun-22 08:00N 47°08' W 002°24'0 0.6
2017-Jun-22 07:30N 47°08' W 002°24'2 3.0
2017-Jun-22 07:00N 47°09' W 002°26'1 2.6
2017-Jun-22 06:30N 47°08' W 002°24'2 3.9
2017-Jun-22 06:00N 47°06' W 002°24'4 7.8
2017-Jun-22 05:30N 47°02' W 002°24'4 8.0
2017-Jun-22 05:00N 46°58' W 002°25'4 8.7
2017-Jun-22 04:30N 46°54' W 002°22'4 8.5
2017-Jun-22 04:00N 46°51' W 002°19'4 8.5
2017-Jun-22 03:30N 46°47' W 002°16'4 7.8
2017-Jun-22 03:00N 46°45' W 002°11'4 8.8
2017-Jun-22 02:30N 46°43' W 002°05'4 9.0
2017-Jun-22 02:00N 46°41' W 001°59'2 3.8
2017-Jun-22 01:30N 46°42' W 001°57'0 0.0
2017-Jun-22 01:00N 46°42' W 001°57'0 0.0
2017-Jun-21 16:46N 46°42' W 001°57'0 0.0
2017-Jun-21 16:31N 46°42' W 001°57'0 0.2
2017-Jun-21 16:01N 46°42' W 001°56'0 0.0
2017-Jun-21 15:30N 46°42' W 001°56'0 0.0
2017-Jun-21 15:00N 46°42' W 001°56'5 5.4
2017-Jun-21 14:00N 46°43' W 002°04'510.0
2017-Jun-21 13:30N 46°45' W 002°11'510.1
2017-Jun-21 13:01N 46°48' W 002°16'510.2
2017-Jun-21 12:30N 46°53' W 002°20'610.2
2017-Jun-21 11:54N 46°58' W 002°25'3 8.6
2017-Jun-21 11:30N 47°02' W 002°24'4 8.8
2017-Jun-21 11:00N 47°06' W 002°24'2 3.5
2017-Jun-21 10:29N 47°08' W 002°25'0 0.3
2017-Jun-21 10:00N 47°08' W 002°24'1 2.0
2017-Jun-21 09:31N 47°08' W 002°25'1 2.9
2017-Jun-21 09:00N 47°10' W 002°25'2 3.5
2017-Jun-21 08:30N 47°09' W 002°24'2 3.3
2017-Jun-21 08:00N 47°10' W 002°25'1 1.2
2017-Jun-21 07:30N 47°10' W 002°26'0 0.2
2017-Jun-21 07:00N 47°10' W 002°26'0 0.9
2017-Jun-21 06:31N 47°10' W 002°25'2 3.4
2017-Jun-21 06:00N 47°08' W 002°24'1 2.4
2017-Jun-21 05:31N 47°07' W 002°24'4 8.4
2017-Jun-21 05:00N 47°03' W 002°24'4 8.2
2017-Jun-21 04:30N 46°59' W 002°25'4 8.7
2017-Jun-21 04:01N 46°55' W 002°23'4 8.8
2017-Jun-21 03:31N 46°51' W 002°19'4 8.9
2017-Jun-21 03:01N 46°47' W 002°16'4 8.1
2017-Jun-21 02:31N 46°45' W 002°12'5 9.1
2017-Jun-21 02:00N 46°43' W 002°05'5 9.1
2017-Jun-21 01:30N 46°41' W 001°59'2 3.9
2017-Jun-21 01:01N 46°42' W 001°57'0 0.0
2017-Jun-20 20:28N 46°42' W 001°57'0 0.0
2017-Jun-20 20:00N 46°42' W 001°57'0 0.0
2017-Jun-20 19:06N 46°42' W 001°57'0 0.0
2017-Jun-20 19:00N 46°42' W 001°57'0 0.0
2017-Jun-20 18:30N 46°42' W 001°57'0 0.0
2017-Jun-20 18:00N 46°42' W 001°57'0 0.0
2017-Jun-20 17:30N 46°42' W 001°57'0 0.2
2017-Jun-20 17:00N 46°42' W 001°56'0 0.0
2017-Jun-20 16:29N 46°42' W 001°56'0 0.0
2017-Jun-20 16:00N 46°42' W 001°56'0 0.3
2017-Jun-20 15:30N 46°42' W 001°57'4 7.5
2017-Jun-20 15:00N 46°42' W 002°02'9 9.4
2017-Jun-20 14:00N 46°47' W 002°14'510.0
2017-Jun-20 13:30N 46°51' W 002°18'5 9.7
2017-Jun-20 13:00N 46°55' W 002°22'5 9.4
2017-Jun-20 12:30N 46°59' W 002°24'5 9.2
2017-Jun-20 12:00N 47°04' W 002°24'4 6.7
2017-Jun-20 11:29N 47°07' W 002°23'1 2.8
2017-Jun-20 11:00N 47°08' W 002°25'1 1.3
2017-Jun-20 10:30N 47°08' W 002°25'2 3.7
2017-Jun-20 10:00N 47°10' W 002°25'0 0.9
2017-Jun-20 09:30N 47°10' W 002°25'0 0.5
2017-Jun-20 08:59N 47°10' W 002°25'0 0.8
2017-Jun-20 08:30N 47°10' W 002°25'2 3.2
2017-Jun-20 07:59N 47°09' W 002°27'1 1.1
2017-Jun-20 07:30N 47°09' W 002°28'4 7.9
2017-Jun-20 07:00N 47°07' W 002°33'3 6.5
2017-Jun-20 06:30N 47°04' W 002°33'510.2
2017-Jun-20 06:00N 46°59' W 002°33'4 8.4
2017-Jun-20 05:30N 46°55' W 002°32'5 9.1
2017-Jun-20 05:00N 46°50' W 002°29'4 8.9
2017-Jun-20 04:30N 46°48' W 002°24'5 9.5
2017-Jun-20 04:00N 46°46' W 002°17'5 9.4
2017-Jun-20 03:30N 46°44' W 002°11'5 9.4
2017-Jun-20 03:00N 46°43' W 002°05'5 9.3
2017-Jun-20 02:30N 46°41' W 001°58'1 2.7
2017-Jun-20 02:00N 46°42' W 001°57'0 0.0
2017-Jun-20 01:30N 46°42' W 001°57'0 0.0
2017-Jun-20 01:00N 46°42' W 001°57'0 0.0
2017-Jun-20 00:30N 46°42' W 001°57'0 0.0
2017-Jun-20 00:00N 46°42' W 001°57'0 0.0
2017-Jun-19 23:30N 46°42' W 001°57'0 0.0
2017-Jun-19 23:00N 46°42' W 001°57'0 0.0
2017-Jun-19 22:30N 46°42' W 001°57'0 0.0
2017-Jun-19 22:00N 46°42' W 001°57'0 0.2
2017-Jun-19 21:30N 46°42' W 001°56'0 0.0
2017-Jun-19 21:00N 46°42' W 001°56'0 0.7
2017-Jun-19 20:30N 46°42' W 001°57'4 8.2
2017-Jun-19 20:00N 46°42' W 002°03'5 9.4
2017-Jun-19 19:30N 46°44' W 002°09'4 8.9
2017-Jun-19 19:00N 46°46' W 002°15'22 8.9
2017-Jun-19 16:36N 47°01' W 002°37'0 3.2
2017-Jun-19 16:27N 47°02' W 002°38'2 4.1
2017-Jun-19 16:00N 47°04' W 002°38'2 3.7
2017-Jun-19 15:30N 47°05' W 002°37'2 2.6
2017-Jun-19 14:45N 47°03' W 002°36'1 2.4
2017-Jun-19 14:20N 47°02' W 002°36'2 0.5
2017-Jun-19 09:55N 47°01' W 002°33'3 4.1
2017-Jun-19 09:12N 47°01' W 002°37'1 2.3
2017-Jun-19 08:51N 47°01' W 002°36'2 2.0
2017-Jun-19 07:53N 46°59' W 002°35'5 6.1
2017-Jun-19 07:06N 46°54' W 002°34'2 1.5
2017-Jun-19 05:56N 46°56' W 002°34'2 2.1
2017-Jun-19 05:11N 46°55' W 002°32'2 8.2
2017-Jun-19 04:56N 46°53' W 002°32'3 6.6
2017-Jun-19 04:30N 46°50' W 002°30'4 8.6
2017-Jun-19 04:00N 46°48' W 002°24'5 9.5
2017-Jun-19 03:30N 46°46' W 002°18'5 9.6
2017-Jun-19 03:00N 46°44' W 002°12'5 9.5
2017-Jun-19 02:30N 46°43' W 002°05'5 9.4
2017-Jun-19 02:00N 46°41' W 001°59'2 3.1
2017-Jun-19 01:30N 46°42' W 001°57'0 0.0
2017-Jun-18 22:09N 46°42' W 001°57'0 0.0
2017-Jun-18 22:01N 46°42' W 001°57'0 0.0
2017-Jun-18 21:30N 46°42' W 001°57'0 0.0
2017-Jun-18 21:01N 46°42' W 001°57'0 0.0
2017-Jun-18 20:30N 46°42' W 001°57'0 0.0
2017-Jun-18 15:28N 46°42' W 001°57'0 0.0
2017-Jun-18 15:00N 46°42' W 001°57'0 0.0
2017-Jun-18 14:00N 46°42' W 001°57'0 0.0
2017-Jun-18 13:30N 46°42' W 001°57'0 0.2
2017-Jun-18 13:00N 46°42' W 001°56'0 0.0
2017-Jun-18 12:30N 46°42' W 001°56'1 1.7
2017-Jun-18 12:00N 46°41' W 001°58'4 8.7
2017-Jun-18 11:30N 46°43' W 002°04'5 9.3
2017-Jun-18 11:00N 46°44' W 002°10'19 8.8
2017-Jun-18 08:51N 46°53' W 002°35'1 3.0
2017-Jun-18 08:29N 46°53' W 002°33'2 3.1
2017-Jun-18 07:46N 46°51' W 002°31'2 4.1
2017-Jun-18 07:21N 46°50' W 002°31'1 2.9
2017-Jun-18 06:55N 46°49' W 002°32'1 2.3
2017-Jun-18 06:28N 46°50' W 002°31'2 3.5
2017-Jun-18 06:00N 46°50' W 002°29'1 1.8
2017-Jun-18 05:25N 46°50' W 002°30'1 3.3
2017-Jun-18 05:00N 46°50' W 002°29'0 0.1
2017-Jun-18 04:30N 46°50' W 002°28'0 0.1
2017-Jun-18 04:00N 46°50' W 002°28'3 5.3
2017-Jun-18 03:30N 46°49' W 002°25'5 9.4
2017-Jun-18 03:00N 46°47' W 002°19'5 9.7
2017-Jun-18 02:30N 46°45' W 002°12'5 9.3
2017-Jun-18 02:00N 46°43' W 002°06'5 9.1
2017-Jun-18 01:30N 46°41' W 001°60'2 4.9
2017-Jun-18 01:00N 46°42' W 001°56'0 0.0
2017-Jun-18 00:30N 46°42' W 001°56'  
2017-Jun-15 18:22N 46°42' W 001°57'0 0.3
2017-Jun-15 18:00N 46°42' W 001°56'0 0.0
2017-Jun-15 17:29N 46°42' W 001°56'0 0.0
2017-Jun-15 17:00N 46°42' W 001°56'3 6.1
2017-Jun-15 16:30N 46°41' W 002°01'  

Dump ship's entire track history